<?xml version="1.0" encoding="UTF-8" standalone="no" ?><gpx xmlns="http://www.topografix.com/GPX/1/1" xmlns:gpxx="http://www.garmin.com/xmlschemas/GpxExtensions/v3" xmlns:wptx1="http://www.garmin.com/xmlschemas/WaypointExtension/v1" xmlns:gpxtpx="http://www.garmin.com/xmlschemas/TrackPointExtension/v1" creator="Dakota 20" version="1.1" xmlns:xsi="http://www.w3.org/2001/XMLSchema-instance" xsi:schemaLocation="http://www.topografix.com/GPX/1/1 http://www.topografix.com/GPX/1/1/gpx.xsd http://www.garmin.com/xmlschemas/GpxExtensions/v3 http://www8.garmin.com/xmlschemas/GpxExtensionsv3.xsd http://www.garmin.com/xmlschemas/WaypointExtension/v1 http://www8.garmin.com/xmlschemas/WaypointExtensionv1.xsd http://www.garmin.com/xmlschemas/TrackPointExtension/v1 http://www.garmin.com/xmlschemas/TrackPointExtensionv1.xsd"><metadata><link href="http://www.garmin.com"><text>Garmin International</text></link><time>2018-06-27T19:51:57Z</time></metadata><trk><name>Current Track: 27 JUN 2018 10:06</name><extensions><gpxx:TrackExtension><gpxx:DisplayColor>Cyan</gpxx:DisplayColor></gpxx:TrackExtension></extensions><trkseg><trkpt lat="51.7781258281" lon="-2.0929505769"><ele>243.35</ele><time>2018-06-27T09:06:30Z</time></trkpt><trkpt lat="51.7781239841" lon="-2.0929502416"><ele>244.31</ele><time>2018-06-27T09:06:32Z</time></trkpt><trkpt lat="51.7781252414" lon="-2.0929478109"><ele>243.35</ele><time>2018-06-27T09:06:53Z</time></trkpt><trkpt lat="51.7781285103" lon="-2.0929501578"><ele>243.83</ele><time>2018-06-27T09:07:12Z</time></trkpt><trkpt lat="51.7781052925" lon="-2.0928279497"><ele>243.35</ele><time>2018-06-27T09:07:27Z</time></trkpt><trkpt lat="51.7780679930" lon="-2.0926666819"><ele>242.87</ele><time>2018-06-27T09:07:46Z</time></trkpt><trkpt lat="51.7781338748" lon="-2.0924710482"><ele>242.39</ele><time>2018-06-27T09:08:01Z</time></trkpt><trkpt lat="51.7781911232" lon="-2.0923710521"><ele>241.91</ele><time>2018-06-27T09:08:15Z</time></trkpt><trkpt lat="51.7782427557" lon="-2.0921437349"><ele>240.95</ele><time>2018-06-27T09:08:32Z</time></trkpt><trkpt lat="51.7782840785" lon="-2.0919560641"><ele>240.47</ele><time>2018-06-27T09:08:51Z</time></trkpt><trkpt lat="51.7783062067" lon="-2.0918952115"><ele>240.47</ele><time>2018-06-27T09:09:10Z</time></trkpt><trkpt lat="51.7783293407" lon="-2.0917227119"><ele>239.02</ele><time>2018-06-27T09:09:25Z</time></trkpt><trkpt lat="51.7783514690" lon="-2.0915673114"><ele>238.06</ele><time>2018-06-27T09:09:40Z</time></trkpt><trkpt lat="51.7784738448" lon="-2.0913515612"><ele>236.62</ele><time>2018-06-27T09:09:58Z</time></trkpt><trkpt lat="51.7785708234" lon="-2.0911863539"><ele>236.14</ele><time>2018-06-27T09:10:18Z</time></trkpt><trkpt lat="51.7786397226" lon="-2.0910084061"><ele>234.70</ele><time>2018-06-27T09:10:36Z</time></trkpt><trkpt lat="51.7787190992" lon="-2.0909001119"><ele>233.74</ele><time>2018-06-27T09:10:56Z</time></trkpt><trkpt lat="51.7787879985" lon="-2.0907675941"><ele>232.78</ele><time>2018-06-27T09:11:14Z</time></trkpt><trkpt lat="51.7788643576" lon="-2.0905403607"><ele>231.33</ele><time>2018-06-27T09:11:35Z</time></trkpt><trkpt lat="51.7789104581" lon="-2.0904381014"><ele>230.85</ele><time>2018-06-27T09:11:57Z</time></trkpt><trkpt lat="51.7789725680" lon="-2.0903380215"><ele>229.89</ele><time>2018-06-27T09:12:14Z</time></trkpt><trkpt lat="51.7790323310" lon="-2.0902433060"><ele>229.41</ele><time>2018-06-27T09:12:33Z</time></trkpt><trkpt lat="51.7790397909" lon="-2.0902543701"><ele>229.41</ele><time>2018-06-27T09:12:52Z</time></trkpt><trkpt lat="51.7790886573" lon="-2.0901096985"><ele>227.01</ele><time>2018-06-27T09:13:09Z</time></trkpt><trkpt lat="51.7791693751" lon="-2.0899077784"><ele>224.61</ele><time>2018-06-27T09:13:29Z</time></trkpt><trkpt lat="51.7792969476" lon="-2.0896492805"><ele>222.68</ele><time>2018-06-27T09:13:54Z</time></trkpt><trkpt lat="51.7793945130" lon="-2.0895288326"><ele>220.76</ele><time>2018-06-27T09:14:14Z</time></trkpt><trkpt lat="51.7794010509" lon="-2.0895248093"><ele>220.28</ele><time>2018-06-27T09:14:15Z</time></trkpt><trkpt lat="51.7795062438" lon="-2.0894383918"><ele>219.32</ele><time>2018-06-27T09:14:31Z</time></trkpt><trkpt lat="51.7796532623" lon="-2.0893728454"><ele>217.88</ele><time>2018-06-27T09:14:48Z</time></trkpt><trkpt lat="51.7796982732" lon="-2.0893610269"><ele>216.91</ele><time>2018-06-27T09:15:05Z</time></trkpt><trkpt lat="51.7798418552" lon="-2.0893077180"><ele>214.99</ele><time>2018-06-27T09:15:24Z</time></trkpt><trkpt lat="51.7799892928" lon="-2.0892176125"><ele>213.55</ele><time>2018-06-27T09:15:43Z</time></trkpt><trkpt lat="51.7801521532" lon="-2.0891257469"><ele>211.15</ele><time>2018-06-27T09:16:03Z</time></trkpt><trkpt lat="51.7803394888" lon="-2.0890504774"><ele>208.74</ele><time>2018-06-27T09:16:26Z</time></trkpt><trkpt lat="51.7804484535" lon="-2.0889810752"><ele>207.78</ele><time>2018-06-27T09:16:47Z</time></trkpt><trkpt lat="51.7804461066" lon="-2.0889612939"><ele>207.78</ele><time>2018-06-27T09:17:07Z</time></trkpt><trkpt lat="51.7804424185" lon="-2.0888713561"><ele>208.26</ele><time>2018-06-27T09:17:22Z</time></trkpt><trkpt lat="51.7804356292" lon="-2.0886918996"><ele>208.74</ele><time>2018-06-27T09:17:40Z</time></trkpt><trkpt lat="51.7804719228" lon="-2.0885021333"><ele>207.78</ele><time>2018-06-27T09:17:56Z</time></trkpt><trkpt lat="51.7805610225" lon="-2.0883225929"><ele>205.86</ele><time>2018-06-27T09:18:12Z</time></trkpt><trkpt lat="51.7805654649" lon="-2.0882881433"><ele>205.38</ele><time>2018-06-27T09:18:27Z</time></trkpt><trkpt lat="51.7806037702" lon="-2.0881750714"><ele>204.42</ele><time>2018-06-27T09:18:42Z</time></trkpt><trkpt lat="51.7806561571" lon="-2.0880708005"><ele>203.46</ele><time>2018-06-27T09:18:58Z</time></trkpt><trkpt lat="51.7806640361" lon="-2.0880930964"><ele>202.98</ele><time>2018-06-27T09:19:16Z</time></trkpt><trkpt lat="51.7806896847" lon="-2.0880507678"><ele>202.49</ele><time>2018-06-27T09:19:34Z</time></trkpt><trkpt lat="51.7807224579" lon="-2.0879816171"><ele>201.53</ele><time>2018-06-27T09:19:52Z</time></trkpt><trkpt lat="51.7807655409" lon="-2.0878747478"><ele>199.13</ele><time>2018-06-27T09:20:08Z</time></trkpt><trkpt lat="51.7807832267" lon="-2.0878570620"><ele>198.17</ele><time>2018-06-27T09:20:23Z</time></trkpt><trkpt lat="51.7808039300" lon="-2.0878074411"><ele>198.65</ele><time>2018-06-27T09:20:36Z</time></trkpt><trkpt lat="51.7808185145" lon="-2.0877954550"><ele>197.69</ele><time>2018-06-27T09:20:55Z</time></trkpt><trkpt lat="51.7808762658" lon="-2.0877071936"><ele>195.77</ele><time>2018-06-27T09:21:11Z</time></trkpt><trkpt lat="51.7809514515" lon="-2.0876216982"><ele>194.80</ele><time>2018-06-27T09:21:29Z</time></trkpt><trkpt lat="51.7809823807" lon="-2.0874559041"><ele>193.36</ele><time>2018-06-27T09:21:45Z</time></trkpt><trkpt lat="51.7809964623" lon="-2.0874911919"><ele>192.88</ele><time>2018-06-27T09:22:09Z</time></trkpt><trkpt lat="51.7809670419" lon="-2.0875310060"><ele>193.84</ele><time>2018-06-27T09:22:25Z</time></trkpt><trkpt lat="51.7809563130" lon="-2.0875557326"><ele>194.32</ele><time>2018-06-27T09:22:45Z</time></trkpt><trkpt lat="51.7809466738" lon="-2.0875994861"><ele>193.84</ele><time>2018-06-27T09:23:15Z</time></trkpt><trkpt lat="51.7809454165" lon="-2.0875728317"><ele>192.88</ele><time>2018-06-27T09:23:31Z</time></trkpt><trkpt lat="51.7809693050" lon="-2.0875071175"><ele>192.88</ele><time>2018-06-27T09:23:49Z</time></trkpt><trkpt lat="51.7809986416" lon="-2.0874336921"><ele>190.96</ele><time>2018-06-27T09:24:08Z</time></trkpt><trkpt lat="51.7810952011" lon="-2.0873364620"><ele>188.56</ele><time>2018-06-27T09:24:30Z</time></trkpt><trkpt lat="51.7811666988" lon="-2.0873505436"><ele>187.11</ele><time>2018-06-27T09:24:50Z</time></trkpt><trkpt lat="51.7812191695" lon="-2.0873401500"><ele>186.63</ele><time>2018-06-27T09:25:09Z</time></trkpt><trkpt lat="51.7812300660" lon="-2.0872841589"><ele>186.63</ele><time>2018-06-27T09:25:31Z</time></trkpt><trkpt lat="51.7812266294" lon="-2.0872860868"><ele>186.15</ele><time>2018-06-27T09:25:50Z</time></trkpt><trkpt lat="51.7812212650" lon="-2.0872806385"><ele>185.67</ele><time>2018-06-27T09:26:26Z</time></trkpt><trkpt lat="51.7812236957" lon="-2.0872741006"><ele>185.67</ele><time>2018-06-27T09:26:51Z</time></trkpt><trkpt lat="51.7813018989" lon="-2.0871604420"><ele>187.11</ele><time>2018-06-27T09:27:13Z</time></trkpt><trkpt lat="51.7813478317" lon="-2.0870162733"><ele>189.04</ele><time>2018-06-27T09:27:33Z</time></trkpt><trkpt lat="51.7813734803" lon="-2.0869558398"><ele>189.04</ele><time>2018-06-27T09:27:51Z</time></trkpt><trkpt lat="51.7814119533" lon="-2.0869165286"><ele>189.04</ele><time>2018-06-27T09:28:14Z</time></trkpt><trkpt lat="51.7814323213" lon="-2.0868313685"><ele>187.59</ele><time>2018-06-27T09:28:33Z</time></trkpt><trkpt lat="51.7814848758" lon="-2.0867045503"><ele>186.15</ele><time>2018-06-27T09:28:57Z</time></trkpt><trkpt lat="51.7815324850" lon="-2.0865566097"><ele>184.23</ele><time>2018-06-27T09:29:14Z</time></trkpt><trkpt lat="51.7815937568" lon="-2.0864405204"><ele>182.79</ele><time>2018-06-27T09:29:34Z</time></trkpt><trkpt lat="51.7816738039" lon="-2.0862727147"><ele>180.87</ele><time>2018-06-27T09:29:54Z</time></trkpt><trkpt lat="51.7817397695" lon="-2.0861074235"><ele>177.98</ele><time>2018-06-27T09:30:10Z</time></trkpt><trkpt lat="51.7818378378" lon="-2.0857971255"><ele>175.10</ele><time>2018-06-27T09:30:28Z</time></trkpt><trkpt lat="51.7819406837" lon="-2.0855787769"><ele>172.69</ele><time>2018-06-27T09:30:45Z</time></trkpt><trkpt lat="51.7820815835" lon="-2.0853999071"><ele>171.25</ele><time>2018-06-27T09:31:02Z</time></trkpt><trkpt lat="51.7821039632" lon="-2.0853222068"><ele>168.37</ele><time>2018-06-27T09:31:18Z</time></trkpt><trkpt lat="51.7820840981" lon="-2.0851122402"><ele>166.45</ele><time>2018-06-27T09:31:38Z</time></trkpt><trkpt lat="51.7821268458" lon="-2.0849845000"><ele>165.96</ele><time>2018-06-27T09:31:55Z</time></trkpt><trkpt lat="51.7821540032" lon="-2.0849990845"><ele>165.96</ele><time>2018-06-27T09:32:23Z</time></trkpt><trkpt lat="51.7822235730" lon="-2.0849172771"><ele>165.00</ele><time>2018-06-27T09:32:47Z</time></trkpt><trkpt lat="51.7822596990" lon="-2.0848182868"><ele>163.56</ele><time>2018-06-27T09:33:07Z</time></trkpt><trkpt lat="51.7823114991" lon="-2.0844025444"><ele>162.12</ele><time>2018-06-27T09:33:26Z</time></trkpt><trkpt lat="51.7823712621" lon="-2.0843154564"><ele>161.64</ele><time>2018-06-27T09:33:44Z</time></trkpt><trkpt lat="51.7823798954" lon="-2.0840570424"><ele>160.20</ele><time>2018-06-27T09:34:04Z</time></trkpt><trkpt lat="51.7823453620" lon="-2.0838471595"><ele>159.72</ele><time>2018-06-27T09:34:22Z</time></trkpt><trkpt lat="51.7823361419" lon="-2.0836716425"><ele>159.24</ele><time>2018-06-27T09:34:40Z</time></trkpt><trkpt lat="51.7824526504" lon="-2.0834631845"><ele>158.75</ele><time>2018-06-27T09:34:58Z</time></trkpt><trkpt lat="51.7825742718" lon="-2.0831564907"><ele>158.75</ele><time>2018-06-27T09:35:15Z</time></trkpt><trkpt lat="51.7825775407" lon="-2.0830528904"><ele>158.27</ele><time>2018-06-27T09:35:42Z</time></trkpt><trkpt lat="51.7826321069" lon="-2.0829163492"><ele>157.79</ele><time>2018-06-27T09:35:58Z</time></trkpt><trkpt lat="51.7826444283" lon="-2.0828711707"><ele>157.79</ele><time>2018-06-27T09:36:18Z</time></trkpt><trkpt lat="51.7826906964" lon="-2.0828677341"><ele>157.31</ele><time>2018-06-27T09:36:38Z</time></trkpt><trkpt lat="51.7827404849" lon="-2.0828212146"><ele>157.79</ele><time>2018-06-27T09:37:02Z</time></trkpt><trkpt lat="51.7827454302" lon="-2.0828243997"><ele>157.79</ele><time>2018-06-27T09:37:26Z</time></trkpt><trkpt lat="51.7827321030" lon="-2.0828832407"><ele>157.79</ele><time>2018-06-27T09:37:53Z</time></trkpt><trkpt lat="51.7827595118" lon="-2.0828379784"><ele>157.79</ele><time>2018-06-27T09:38:26Z</time></trkpt><trkpt lat="51.7827911954" lon="-2.0826993417"><ele>157.79</ele><time>2018-06-27T09:38:55Z</time></trkpt><trkpt lat="51.7828179337" lon="-2.0825550891"><ele>159.24</ele><time>2018-06-27T09:39:12Z</time></trkpt><trkpt lat="51.7828042712" lon="-2.0824221522"><ele>160.20</ele><time>2018-06-27T09:39:33Z</time></trkpt><trkpt lat="51.7828015052" lon="-2.0822022948"><ele>161.16</ele><time>2018-06-27T09:39:52Z</time></trkpt><trkpt lat="51.7828481086" lon="-2.0820670109"><ele>163.08</ele><time>2018-06-27T09:40:12Z</time></trkpt><trkpt lat="51.7828892637" lon="-2.0819276199"><ele>163.08</ele><time>2018-06-27T09:40:33Z</time></trkpt><trkpt lat="51.7829360347" lon="-2.0817836188"><ele>165.00</ele><time>2018-06-27T09:40:50Z</time></trkpt><trkpt lat="51.7829046864" lon="-2.0816200878"><ele>166.45</ele><time>2018-06-27T09:41:07Z</time></trkpt><trkpt lat="51.7829078715" lon="-2.0815027412"><ele>166.93</ele><time>2018-06-27T09:41:29Z</time></trkpt><trkpt lat="51.7829547264" lon="-2.0814425591"><ele>168.37</ele><time>2018-06-27T09:41:51Z</time></trkpt><trkpt lat="51.7829714902" lon="-2.0813910943"><ele>170.77</ele><time>2018-06-27T09:42:13Z</time></trkpt><trkpt lat="51.7830383778" lon="-2.0812653657"><ele>172.21</ele><time>2018-06-27T09:42:32Z</time></trkpt><trkpt lat="51.7830411438" lon="-2.0811605919"><ele>173.66</ele><time>2018-06-27T09:42:47Z</time></trkpt><trkpt lat="51.7830275651" lon="-2.0810398087"><ele>174.14</ele><time>2018-06-27T09:43:08Z</time></trkpt><trkpt lat="51.7830139864" lon="-2.0808658004"><ele>175.58</ele><time>2018-06-27T09:43:28Z</time></trkpt><trkpt lat="51.7830345221" lon="-2.0805813186"><ele>177.02</ele><time>2018-06-27T09:43:45Z</time></trkpt><trkpt lat="51.7830623500" lon="-2.0804919675"><ele>178.46</ele><time>2018-06-27T09:44:01Z</time></trkpt><trkpt lat="51.7830754258" lon="-2.0803529955"><ele>178.94</ele><time>2018-06-27T09:44:16Z</time></trkpt><trkpt lat="51.7831201851" lon="-2.0801023766"><ele>180.38</ele><time>2018-06-27T09:44:38Z</time></trkpt><trkpt lat="51.7831325904" lon="-2.0799443778"><ele>180.87</ele><time>2018-06-27T09:44:57Z</time></trkpt><trkpt lat="51.7831040919" lon="-2.0798556134"><ele>181.83</ele><time>2018-06-27T09:45:18Z</time></trkpt><trkpt lat="51.7830869090" lon="-2.0796407852"><ele>182.79</ele><time>2018-06-27T09:45:37Z</time></trkpt><trkpt lat="51.7831268068" lon="-2.0793361869"><ele>184.23</ele><time>2018-06-27T09:45:57Z</time></trkpt><trkpt lat="51.7831570655" lon="-2.0790782757"><ele>186.15</ele><time>2018-06-27T09:46:16Z</time></trkpt><trkpt lat="51.7831526231" lon="-2.0789424051"><ele>187.59</ele><time>2018-06-27T09:46:38Z</time></trkpt><trkpt lat="51.7831851449" lon="-2.0788344461"><ele>188.08</ele><time>2018-06-27T09:47:04Z</time></trkpt><trkpt lat="51.7832555529" lon="-2.0786895230"><ele>189.04</ele><time>2018-06-27T09:47:24Z</time></trkpt><trkpt lat="51.7833054252" lon="-2.0784665644"><ele>190.48</ele><time>2018-06-27T09:47:41Z</time></trkpt><trkpt lat="51.7833273858" lon="-2.0783630479"><ele>191.44</ele><time>2018-06-27T09:48:05Z</time></trkpt><trkpt lat="51.7833194230" lon="-2.0783496369"><ele>191.92</ele><time>2018-06-27T09:48:24Z</time></trkpt><trkpt lat="51.7832497694" lon="-2.0782500599"><ele>194.32</ele><time>2018-06-27T09:48:40Z</time></trkpt><trkpt lat="51.7832711432" lon="-2.0782850962"><ele>192.88</ele><time>2018-06-27T09:48:56Z</time></trkpt><trkpt lat="51.7833252903" lon="-2.0783578511"><ele>192.88</ele><time>2018-06-27T09:49:13Z</time></trkpt><trkpt lat="51.7834016494" lon="-2.0783123374"><ele>193.36</ele><time>2018-06-27T09:49:32Z</time></trkpt><trkpt lat="51.7834282201" lon="-2.0781994332"><ele>195.28</ele><time>2018-06-27T09:49:53Z</time></trkpt><trkpt lat="51.7834759131" lon="-2.0781954098"><ele>196.73</ele><time>2018-06-27T09:50:17Z</time></trkpt><trkpt lat="51.7834929284" lon="-2.0781368203"><ele>198.65</ele><time>2018-06-27T09:50:36Z</time></trkpt><trkpt lat="51.7835154757" lon="-2.0780269336"><ele>198.65</ele><time>2018-06-27T09:50:54Z</time></trkpt><trkpt lat="51.7834956944" lon="-2.0779992733"><ele>198.65</ele><time>2018-06-27T09:51:18Z</time></trkpt><trkpt lat="51.7834359314" lon="-2.0779487304"><ele>199.13</ele><time>2018-06-27T09:51:53Z</time></trkpt><trkpt lat="51.7834488396" lon="-2.0779463835"><ele>198.65</ele><time>2018-06-27T09:52:23Z</time></trkpt><trkpt lat="51.7834309861" lon="-2.0779282786"><ele>198.65</ele><time>2018-06-27T09:52:55Z</time></trkpt><trkpt lat="51.7834314890" lon="-2.0779216569"><ele>198.65</ele><time>2018-06-27T09:53:30Z</time></trkpt><trkpt lat="51.7834211793" lon="-2.0779172145"><ele>199.13</ele><time>2018-06-27T09:53:57Z</time></trkpt><trkpt lat="51.7834367696" lon="-2.0778991934"><ele>198.65</ele><time>2018-06-27T09:54:20Z</time></trkpt><trkpt lat="51.7834530305" lon="-2.0778440405"><ele>198.65</ele><time>2018-06-27T09:54:42Z</time></trkpt><trkpt lat="51.7834770028" lon="-2.0777468942"><ele>199.13</ele><time>2018-06-27T09:55:05Z</time></trkpt><trkpt lat="51.7835251987" lon="-2.0776939206"><ele>200.09</ele><time>2018-06-27T09:55:25Z</time></trkpt><trkpt lat="51.7836102750" lon="-2.0776872151"><ele>200.57</ele><time>2018-06-27T09:55:49Z</time></trkpt><trkpt lat="51.7836421262" lon="-2.0777271129"><ele>200.57</ele><time>2018-06-27T09:56:13Z</time></trkpt><trkpt lat="51.7836611532" lon="-2.0777116902"><ele>202.01</ele><time>2018-06-27T09:56:35Z</time></trkpt><trkpt lat="51.7837089300" lon="-2.0777023863"><ele>203.46</ele><time>2018-06-27T09:56:53Z</time></trkpt><trkpt lat="51.7838736344" lon="-2.0777565334"><ele>204.42</ele><time>2018-06-27T09:57:12Z</time></trkpt><trkpt lat="51.7839321401" lon="-2.0777877141"><ele>207.30</ele><time>2018-06-27T09:57:35Z</time></trkpt><trkpt lat="51.7840048950" lon="-2.0778421964"><ele>208.26</ele><time>2018-06-27T09:57:58Z</time></trkpt><trkpt lat="51.7840715311" lon="-2.0778663363"><ele>207.30</ele><time>2018-06-27T09:58:24Z</time></trkpt><trkpt lat="51.7840932403" lon="-2.0778582897"><ele>207.30</ele><time>2018-06-27T09:58:46Z</time></trkpt><trkpt lat="51.7841082439" lon="-2.0778529253"><ele>205.86</ele><time>2018-06-27T09:59:07Z</time></trkpt><trkpt lat="51.7841224093" lon="-2.0778608881"><ele>206.34</ele><time>2018-06-27T09:59:31Z</time></trkpt><trkpt lat="51.7841906380" lon="-2.0778802503"><ele>208.74</ele><time>2018-06-27T09:59:52Z</time></trkpt><trkpt lat="51.7841853574" lon="-2.0778991096"><ele>209.70</ele><time>2018-06-27T10:00:15Z</time></trkpt><trkpt lat="51.7841580324" lon="-2.0778298751"><ele>211.15</ele><time>2018-06-27T10:00:35Z</time></trkpt><trkpt lat="51.7841721978" lon="-2.0776386000"><ele>211.63</ele><time>2018-06-27T10:00:55Z</time></trkpt><trkpt lat="51.7841878720" lon="-2.0775989536"><ele>212.59</ele><time>2018-06-27T10:01:19Z</time></trkpt><trkpt lat="51.7841786519" lon="-2.0775733888"><ele>214.03</ele><time>2018-06-27T10:01:40Z</time></trkpt><trkpt lat="51.7841808312" lon="-2.0775588881"><ele>214.99</ele><time>2018-06-27T10:02:02Z</time></trkpt><trkpt lat="51.7841824237" lon="-2.0775524341"><ele>214.51</ele><time>2018-06-27T10:02:22Z</time></trkpt><trkpt lat="51.7841830943" lon="-2.0775334910"><ele>215.47</ele><time>2018-06-27T10:02:48Z</time></trkpt><trkpt lat="51.7841746286" lon="-2.0774957724"><ele>216.91</ele><time>2018-06-27T10:03:13Z</time></trkpt><trkpt lat="51.7841763888" lon="-2.0774263702"><ele>217.40</ele><time>2018-06-27T10:03:39Z</time></trkpt><trkpt lat="51.7841614690" lon="-2.0773138851"><ele>218.84</ele><time>2018-06-27T10:04:01Z</time></trkpt><trkpt lat="51.7841388378" lon="-2.0771864802"><ele>219.80</ele><time>2018-06-27T10:04:23Z</time></trkpt><trkpt lat="51.7841525842" lon="-2.0771292318"><ele>220.76</ele><time>2018-06-27T10:04:45Z</time></trkpt><trkpt lat="51.7841509916" lon="-2.0770951174"><ele>221.72</ele><time>2018-06-27T10:05:07Z</time></trkpt><trkpt lat="51.7841601279" lon="-2.0770738274"><ele>224.12</ele><time>2018-06-27T10:05:30Z</time></trkpt><trkpt lat="51.7841672525" lon="-2.0770519506"><ele>225.09</ele><time>2018-06-27T10:05:53Z</time></trkpt><trkpt lat="51.7841829266" lon="-2.0769581571"><ele>227.49</ele><time>2018-06-27T10:06:11Z</time></trkpt><trkpt lat="51.7842018697" lon="-2.0769122243"><ele>227.49</ele><time>2018-06-27T10:06:29Z</time></trkpt><trkpt lat="51.7842259258" lon="-2.0768396370"><ele>227.49</ele><time>2018-06-27T10:06:44Z</time></trkpt><trkpt lat="51.7842918076" lon="-2.0767172612"><ele>227.97</ele><time>2018-06-27T10:07:04Z</time></trkpt><trkpt lat="51.7842982616" lon="-2.0767191891"><ele>227.49</ele><time>2018-06-27T10:07:27Z</time></trkpt><trkpt lat="51.7843195517" lon="-2.0767010842"><ele>227.49</ele><time>2018-06-27T10:07:46Z</time></trkpt><trkpt lat="51.7843426857" lon="-2.0766707417"><ele>228.45</ele><time>2018-06-27T10:08:04Z</time></trkpt><trkpt lat="51.7843370698" lon="-2.0766673051"><ele>227.97</ele><time>2018-06-27T10:08:23Z</time></trkpt><trkpt lat="51.7843315378" lon="-2.0767507888"><ele>227.97</ele><time>2018-06-27T10:08:46Z</time></trkpt><trkpt lat="51.7843047995" lon="-2.0767798740"><ele>227.97</ele><time>2018-06-27T10:09:09Z</time></trkpt><trkpt lat="51.7842915561" lon="-2.0767851546"><ele>227.49</ele><time>2018-06-27T10:09:36Z</time></trkpt><trkpt lat="51.7842466291" lon="-2.0767696481"><ele>227.49</ele><time>2018-06-27T10:09:57Z</time></trkpt><trkpt lat="51.7842405103" lon="-2.0767789520"><ele>227.97</ele><time>2018-06-27T10:10:24Z</time></trkpt><trkpt lat="51.7842442822" lon="-2.0767847355"><ele>227.97</ele><time>2018-06-27T10:10:50Z</time></trkpt><trkpt lat="51.7842466291" lon="-2.0767865796"><ele>227.49</ele><time>2018-06-27T10:11:19Z</time></trkpt><trkpt lat="51.7842472158" lon="-2.0767875016"><ele>227.49</ele><time>2018-06-27T10:11:49Z</time></trkpt><trkpt lat="51.7842457909" lon="-2.0767870825"><ele>227.49</ele><time>2018-06-27T10:12:17Z</time></trkpt><trkpt lat="51.7842372414" lon="-2.0767888427"><ele>227.97</ele><time>2018-06-27T10:12:54Z</time></trkpt><trkpt lat="51.7842351459" lon="-2.0767837297"><ele>228.45</ele><time>2018-06-27T10:13:26Z</time></trkpt><trkpt lat="51.7842346430" lon="-2.0767803770"><ele>228.45</ele><time>2018-06-27T10:14:01Z</time></trkpt><trkpt lat="51.7842326313" lon="-2.0767859928"><ele>227.97</ele><time>2018-06-27T10:14:30Z</time></trkpt><trkpt lat="51.7842385825" lon="-2.0767864957"><ele>228.93</ele><time>2018-06-27T10:15:00Z</time></trkpt><trkpt lat="51.7842407618" lon="-2.0767824724"><ele>228.93</ele><time>2018-06-27T10:15:31Z</time></trkpt><trkpt lat="51.7842405103" lon="-2.0767740067"><ele>228.93</ele><time>2018-06-27T10:16:04Z</time></trkpt><trkpt lat="51.7842410970" lon="-2.0767633617"><ele>228.93</ele><time>2018-06-27T10:16:39Z</time></trkpt><trkpt lat="51.7842393368" lon="-2.0767545607"><ele>229.41</ele><time>2018-06-27T10:17:02Z</time></trkpt><trkpt lat="51.7842314579" lon="-2.0767634455"><ele>228.93</ele><time>2018-06-27T10:17:25Z</time></trkpt><trkpt lat="51.7842256743" lon="-2.0767728332"><ele>228.45</ele><time>2018-06-27T10:17:50Z</time></trkpt><trkpt lat="51.7842309549" lon="-2.0767683070"><ele>230.37</ele><time>2018-06-27T10:18:14Z</time></trkpt><trkpt lat="51.7842359841" lon="-2.0767241344"><ele>229.41</ele><time>2018-06-27T10:18:27Z</time></trkpt><trkpt lat="51.7842878681" lon="-2.0766544808"><ele>229.89</ele><time>2018-06-27T10:18:46Z</time></trkpt><trkpt lat="51.7843219824" lon="-2.0766507927"><ele>229.89</ele><time>2018-06-27T10:18:57Z</time></trkpt><trkpt lat="51.7843827512" lon="-2.0766602643"><ele>229.89</ele><time>2018-06-27T10:19:12Z</time></trkpt><trkpt lat="51.7845196277" lon="-2.0766794588"><ele>230.85</ele><time>2018-06-27T10:19:28Z</time></trkpt><trkpt lat="51.7845666502" lon="-2.0766971447"><ele>231.33</ele><time>2018-06-27T10:19:45Z</time></trkpt><trkpt lat="51.7846054584" lon="-2.0766965579"><ele>231.33</ele><time>2018-06-27T10:19:49Z</time></trkpt><trkpt lat="51.7846953962" lon="-2.0766998269"><ele>231.81</ele><time>2018-06-27T10:20:05Z</time></trkpt><trkpt lat="51.7847144231" lon="-2.0766923670"><ele>232.30</ele><time>2018-06-27T10:20:23Z</time></trkpt><trkpt lat="51.7847761977" lon="-2.0767463464"><ele>232.78</ele><time>2018-06-27T10:20:40Z</time></trkpt><trkpt lat="51.7847903632" lon="-2.0767522976"><ele>233.26</ele><time>2018-06-27T10:20:55Z</time></trkpt><trkpt lat="51.7848610226" lon="-2.0767631941"><ele>232.78</ele><time>2018-06-27T10:21:13Z</time></trkpt><trkpt lat="51.7850515433" lon="-2.0767968893"><ele>235.18</ele><time>2018-06-27T10:21:30Z</time></trkpt><trkpt lat="51.7851186823" lon="-2.0768574066"><ele>235.66</ele><time>2018-06-27T10:21:48Z</time></trkpt><trkpt lat="51.7851643637" lon="-2.0768486895"><ele>235.66</ele><time>2018-06-27T10:22:04Z</time></trkpt><trkpt lat="51.7851758469" lon="-2.0767167583"><ele>236.14</ele><time>2018-06-27T10:22:16Z</time></trkpt><trkpt lat="51.7851593345" lon="-2.0765814744"><ele>236.62</ele><time>2018-06-27T10:22:30Z</time></trkpt><trkpt lat="51.7851142399" lon="-2.0763626229"><ele>236.62</ele><time>2018-06-27T10:22:47Z</time></trkpt><trkpt lat="51.7850797065" lon="-2.0762376487"><ele>237.10</ele><time>2018-06-27T10:23:05Z</time></trkpt><trkpt lat="51.7850118130" lon="-2.0759798214"><ele>236.62</ele><time>2018-06-27T10:23:27Z</time></trkpt><trkpt lat="51.7849586718" lon="-2.0757895522"><ele>236.62</ele><time>2018-06-27T10:23:47Z</time></trkpt><trkpt lat="51.7848917004" lon="-2.0755148772"><ele>237.10</ele><time>2018-06-27T10:24:10Z</time></trkpt><trkpt lat="51.7848782893" lon="-2.0753629971"><ele>238.06</ele><time>2018-06-27T10:24:28Z</time></trkpt><trkpt lat="51.7848668899" lon="-2.0752350055"><ele>237.10</ele><time>2018-06-27T10:24:40Z</time></trkpt><trkpt lat="51.7848518863" lon="-2.0751519408"><ele>237.10</ele><time>2018-06-27T10:24:49Z</time></trkpt><trkpt lat="51.7847948056" lon="-2.0748946164"><ele>237.58</ele><time>2018-06-27T10:25:05Z</time></trkpt><trkpt lat="51.7847432569" lon="-2.0746626053"><ele>238.54</ele><time>2018-06-27T10:25:21Z</time></trkpt><trkpt lat="51.7846580129" lon="-2.0743966475"><ele>239.02</ele><time>2018-06-27T10:25:42Z</time></trkpt><trkpt lat="51.7845479585" lon="-2.0741476212"><ele>239.02</ele><time>2018-06-27T10:26:02Z</time></trkpt><trkpt lat="51.7844239064" lon="-2.0739652310"><ele>239.51</ele><time>2018-06-27T10:26:20Z</time></trkpt><trkpt lat="51.7842874490" lon="-2.0737811644"><ele>239.51</ele><time>2018-06-27T10:26:39Z</time></trkpt><trkpt lat="51.7841680069" lon="-2.0736082457"><ele>239.99</ele><time>2018-06-27T10:26:56Z</time></trkpt><trkpt lat="51.7840312980" lon="-2.0734484866"><ele>239.51</ele><time>2018-06-27T10:27:15Z</time></trkpt><trkpt lat="51.7839558609" lon="-2.0733494963"><ele>239.51</ele><time>2018-06-27T10:27:34Z</time></trkpt><trkpt lat="51.7837882228" lon="-2.0731472410"><ele>239.51</ele><time>2018-06-27T10:27:54Z</time></trkpt><trkpt lat="51.7836720496" lon="-2.0728548802"><ele>239.02</ele><time>2018-06-27T10:28:16Z</time></trkpt><trkpt lat="51.7836229317" lon="-2.0725269802"><ele>238.54</ele><time>2018-06-27T10:28:37Z</time></trkpt><trkpt lat="51.7835934274" lon="-2.0722683985"><ele>238.06</ele><time>2018-06-27T10:28:54Z</time></trkpt><trkpt lat="51.7835777532" lon="-2.0719853416"><ele>237.58</ele><time>2018-06-27T10:29:11Z</time></trkpt><trkpt lat="51.7835438065" lon="-2.0716695953"><ele>237.10</ele><time>2018-06-27T10:29:30Z</time></trkpt><trkpt lat="51.7835260369" lon="-2.0713870414"><ele>237.10</ele><time>2018-06-27T10:29:48Z</time></trkpt><trkpt lat="51.7834987119" lon="-2.0711308066"><ele>236.14</ele><time>2018-06-27T10:30:04Z</time></trkpt><trkpt lat="51.7834799364" lon="-2.0708659384"><ele>236.62</ele><time>2018-06-27T10:30:20Z</time></trkpt><trkpt lat="51.7834496778" lon="-2.0705666207"><ele>235.18</ele><time>2018-06-27T10:30:40Z</time></trkpt><trkpt lat="51.7834342550" lon="-2.0703061111"><ele>234.70</ele><time>2018-06-27T10:30:57Z</time></trkpt><trkpt lat="51.7834129650" lon="-2.0700430032"><ele>233.74</ele><time>2018-06-27T10:31:14Z</time></trkpt><trkpt lat="51.7833873164" lon="-2.0697575994"><ele>235.18</ele><time>2018-06-27T10:31:33Z</time></trkpt><trkpt lat="51.7833803594" lon="-2.0695596188"><ele>233.74</ele><time>2018-06-27T10:31:50Z</time></trkpt><trkpt lat="51.7833461612" lon="-2.0692853630"><ele>234.22</ele><time>2018-06-27T10:32:06Z</time></trkpt><trkpt lat="51.7833350971" lon="-2.0691919886"><ele>234.22</ele><time>2018-06-27T10:32:22Z</time></trkpt><trkpt lat="51.7833161540" lon="-2.0689644199"><ele>232.78</ele><time>2018-06-27T10:32:39Z</time></trkpt><trkpt lat="51.7833064310" lon="-2.0687143877"><ele>232.78</ele><time>2018-06-27T10:32:55Z</time></trkpt><trkpt lat="51.7832858954" lon="-2.0685513597"><ele>232.78</ele><time>2018-06-27T10:33:11Z</time></trkpt><trkpt lat="51.7832715623" lon="-2.0683706459"><ele>232.78</ele><time>2018-06-27T10:33:25Z</time></trkpt><trkpt lat="51.7832539603" lon="-2.0681185182"><ele>231.81</ele><time>2018-06-27T10:33:41Z</time></trkpt><trkpt lat="51.7832310777" lon="-2.0678777061"><ele>231.33</ele><time>2018-06-27T10:33:56Z</time></trkpt><trkpt lat="51.7832170799" lon="-2.0676932205"><ele>232.30</ele><time>2018-06-27T10:34:13Z</time></trkpt><trkpt lat="51.7831924371" lon="-2.0674761292"><ele>231.33</ele><time>2018-06-27T10:34:30Z</time></trkpt><trkpt lat="51.7831685487" lon="-2.0673544239"><ele>231.33</ele><time>2018-06-27T10:34:45Z</time></trkpt><trkpt lat="51.7831611726" lon="-2.0671661664"><ele>230.37</ele><time>2018-06-27T10:34:58Z</time></trkpt><trkpt lat="51.7831455823" lon="-2.0669731312"><ele>230.37</ele><time>2018-06-27T10:35:12Z</time></trkpt><trkpt lat="51.7831428163" lon="-2.0669326466"><ele>230.37</ele><time>2018-06-27T10:35:15Z</time></trkpt><trkpt lat="51.7830980569" lon="-2.0668234304"><ele>230.37</ele><time>2018-06-27T10:35:29Z</time></trkpt><trkpt lat="51.7830922734" lon="-2.0668125339"><ele>230.85</ele><time>2018-06-27T10:35:30Z</time></trkpt><trkpt lat="51.7830676306" lon="-2.0667343307"><ele>230.85</ele><time>2018-06-27T10:35:44Z</time></trkpt><trkpt lat="51.7830405571" lon="-2.0669214148"><ele>231.81</ele><time>2018-06-27T10:35:59Z</time></trkpt><trkpt lat="51.7830211949" lon="-2.0669851173"><ele>231.81</ele><time>2018-06-27T10:36:14Z</time></trkpt><trkpt lat="51.7829840630" lon="-2.0670437068"><ele>231.81</ele><time>2018-06-27T10:36:32Z</time></trkpt><trkpt lat="51.7829544749" lon="-2.0670762286"><ele>232.30</ele><time>2018-06-27T10:36:53Z</time></trkpt><trkpt lat="51.7829291616" lon="-2.0671084989"><ele>232.30</ele><time>2018-06-27T10:37:11Z</time></trkpt><trkpt lat="51.7829241324" lon="-2.0671136957"><ele>232.30</ele><time>2018-06-27T10:37:27Z</time></trkpt><trkpt lat="51.7829148285" lon="-2.0671590418"><ele>232.30</ele><time>2018-06-27T10:37:42Z</time></trkpt><trkpt lat="51.7829066981" lon="-2.0671854448"><ele>232.78</ele><time>2018-06-27T10:37:58Z</time></trkpt><trkpt lat="51.7828823067" lon="-2.0672158711"><ele>233.26</ele><time>2018-06-27T10:38:19Z</time></trkpt><trkpt lat="51.7828760203" lon="-2.0672368258"><ele>233.26</ele><time>2018-06-27T10:38:39Z</time></trkpt><trkpt lat="51.7827886809" lon="-2.0673845150"><ele>233.26</ele><time>2018-06-27T10:38:57Z</time></trkpt><trkpt lat="51.7827721685" lon="-2.0675148536"><ele>233.74</ele><time>2018-06-27T10:39:17Z</time></trkpt><trkpt lat="51.7827618588" lon="-2.0675826631"><ele>234.22</ele><time>2018-06-27T10:39:37Z</time></trkpt><trkpt lat="51.7826818116" lon="-2.0677158516"><ele>234.70</ele><time>2018-06-27T10:39:53Z</time></trkpt><trkpt lat="51.7825956456" lon="-2.0680080447"><ele>234.70</ele><time>2018-06-27T10:40:11Z</time></trkpt><trkpt lat="51.7825124133" lon="-2.0682856534"><ele>235.18</ele><time>2018-06-27T10:40:28Z</time></trkpt><trkpt lat="51.7824533209" lon="-2.0684691332"><ele>236.14</ele><time>2018-06-27T10:40:44Z</time></trkpt><trkpt lat="51.7823741119" lon="-2.0686250366"><ele>236.62</ele><time>2018-06-27T10:41:00Z</time></trkpt><trkpt lat="51.7822948191" lon="-2.0686623361"><ele>236.14</ele><time>2018-06-27T10:41:16Z</time></trkpt><trkpt lat="51.7823023628" lon="-2.0687047485"><ele>236.14</ele><time>2018-06-27T10:41:35Z</time></trkpt><trkpt lat="51.7823157739" lon="-2.0687262900"><ele>236.62</ele><time>2018-06-27T10:42:04Z</time></trkpt><trkpt lat="51.7823127564" lon="-2.0687328279"><ele>236.62</ele><time>2018-06-27T10:42:34Z</time></trkpt><trkpt lat="51.7823149357" lon="-2.0687526092"><ele>236.62</ele><time>2018-06-27T10:42:50Z</time></trkpt><trkpt lat="51.7823000159" lon="-2.0687660202"><ele>236.14</ele><time>2018-06-27T10:43:17Z</time></trkpt><trkpt lat="51.7823075596" lon="-2.0688052475"><ele>237.10</ele><time>2018-06-27T10:43:38Z</time></trkpt><trkpt lat="51.7823105771" lon="-2.0688780863"><ele>236.62</ele><time>2018-06-27T10:43:42Z</time></trkpt><trkpt lat="51.7822760437" lon="-2.0690406952"><ele>236.62</ele><time>2018-06-27T10:44:01Z</time></trkpt><trkpt lat="51.7822206393" lon="-2.0693436172"><ele>237.10</ele><time>2018-06-27T10:44:19Z</time></trkpt><trkpt lat="51.7821441125" lon="-2.0696427673"><ele>237.58</ele><time>2018-06-27T10:44:36Z</time></trkpt><trkpt lat="51.7821015324" lon="-2.0698653907"><ele>237.58</ele><time>2018-06-27T10:44:46Z</time></trkpt><trkpt lat="51.7820172943" lon="-2.0701967273"><ele>238.06</ele><time>2018-06-27T10:45:01Z</time></trkpt><trkpt lat="51.7819368280" lon="-2.0704922732"><ele>238.06</ele><time>2018-06-27T10:45:16Z</time></trkpt><trkpt lat="51.7818619777" lon="-2.0708792657"><ele>239.02</ele><time>2018-06-27T10:45:33Z</time></trkpt><trkpt lat="51.7818157095" lon="-2.0711038169"><ele>239.02</ele><time>2018-06-27T10:45:42Z</time></trkpt><trkpt lat="51.7817499954" lon="-2.0714242570"><ele>239.02</ele><time>2018-06-27T10:46:00Z</time></trkpt><trkpt lat="51.7817029729" lon="-2.0717958268"><ele>239.51</ele><time>2018-06-27T10:46:17Z</time></trkpt><trkpt lat="51.7816613149" lon="-2.0722464379"><ele>239.02</ele><time>2018-06-27T10:46:37Z</time></trkpt><trkpt lat="51.7816399410" lon="-2.0725959633"><ele>239.51</ele><time>2018-06-27T10:46:56Z</time></trkpt><trkpt lat="51.7816406116" lon="-2.0727538783"><ele>239.99</ele><time>2018-06-27T10:47:12Z</time></trkpt><trkpt lat="51.7816245183" lon="-2.0729575586"><ele>239.99</ele><time>2018-06-27T10:47:29Z</time></trkpt><trkpt lat="51.7815956846" lon="-2.0732883085"><ele>240.95</ele><time>2018-06-27T10:47:45Z</time></trkpt><trkpt lat="51.7815424595" lon="-2.0734188985"><ele>240.95</ele><time>2018-06-27T10:47:59Z</time></trkpt><trkpt lat="51.7815197445" lon="-2.0735812560"><ele>240.95</ele><time>2018-06-27T10:48:15Z</time></trkpt><trkpt lat="51.7815084290" lon="-2.0736347325"><ele>241.43</ele><time>2018-06-27T10:48:30Z</time></trkpt><trkpt lat="51.7814931739" lon="-2.0737395063"><ele>241.43</ele><time>2018-06-27T10:48:46Z</time></trkpt><trkpt lat="51.7814422119" lon="-2.0740140975"><ele>241.91</ele><time>2018-06-27T10:49:04Z</time></trkpt><trkpt lat="51.7813894898" lon="-2.0742767863"><ele>241.43</ele><time>2018-06-27T10:49:20Z</time></trkpt><trkpt lat="51.7813349236" lon="-2.0744014252"><ele>241.43</ele><time>2018-06-27T10:49:35Z</time></trkpt><trkpt lat="51.7813087720" lon="-2.0744238887"><ele>238.06</ele><time>2018-06-27T10:50:05Z</time></trkpt><trkpt lat="51.7813086882" lon="-2.0744239725"><ele>241.91</ele><time>2018-06-27T10:50:06Z</time></trkpt><trkpt lat="51.7813086044" lon="-2.0744247269"><ele>241.91</ele><time>2018-06-27T10:50:07Z</time></trkpt><trkpt lat="51.7812936008" lon="-2.0745227952"><ele>241.43</ele><time>2018-06-27T10:50:21Z</time></trkpt><trkpt lat="51.7812718917" lon="-2.0746995695"><ele>241.91</ele><time>2018-06-27T10:50:35Z</time></trkpt><trkpt lat="51.7812205944" lon="-2.0749079436"><ele>241.43</ele><time>2018-06-27T10:50:51Z</time></trkpt><trkpt lat="51.7811833788" lon="-2.0751042478"><ele>241.91</ele><time>2018-06-27T10:51:05Z</time></trkpt><trkpt lat="51.7811612505" lon="-2.0751511864"><ele>241.91</ele><time>2018-06-27T10:51:32Z</time></trkpt><trkpt lat="51.7811382841" lon="-2.0752723049"><ele>247.20</ele><time>2018-06-27T10:51:41Z</time></trkpt><trkpt lat="51.7811360210" lon="-2.0752806030"><ele>241.91</ele><time>2018-06-27T10:51:42Z</time></trkpt><trkpt lat="51.7810963746" lon="-2.0755248517"><ele>241.43</ele><time>2018-06-27T10:52:02Z</time></trkpt><trkpt lat="51.7810198478" lon="-2.0757772308"><ele>241.43</ele><time>2018-06-27T10:52:20Z</time></trkpt><trkpt lat="51.7810024973" lon="-2.0757920668"><ele>241.43</ele><time>2018-06-27T10:52:38Z</time></trkpt><trkpt lat="51.7809881642" lon="-2.0758637320"><ele>240.95</ele><time>2018-06-27T10:52:59Z</time></trkpt><trkpt lat="51.7809670419" lon="-2.0760355610"><ele>240.95</ele><time>2018-06-27T10:53:18Z</time></trkpt><trkpt lat="51.7809227854" lon="-2.0761627983"><ele>240.95</ele><time>2018-06-27T10:53:36Z</time></trkpt><trkpt lat="51.7808630224" lon="-2.0763401594"><ele>239.51</ele><time>2018-06-27T10:53:56Z</time></trkpt><trkpt lat="51.7807807960" lon="-2.0765679795"><ele>239.51</ele><time>2018-06-27T10:54:12Z</time></trkpt><trkpt lat="51.7807541415" lon="-2.0767063648"><ele>238.54</ele><time>2018-06-27T10:54:37Z</time></trkpt><trkpt lat="51.7806907743" lon="-2.0768807922"><ele>238.06</ele><time>2018-06-27T10:54:57Z</time></trkpt><trkpt lat="51.7806740943" lon="-2.0769449137"><ele>236.14</ele><time>2018-06-27T10:55:20Z</time></trkpt><trkpt lat="51.7806811351" lon="-2.0769671258"><ele>233.74</ele><time>2018-06-27T10:55:40Z</time></trkpt><trkpt lat="51.7806623597" lon="-2.0771520305"><ele>234.22</ele><time>2018-06-27T10:56:00Z</time></trkpt><trkpt lat="51.7805859167" lon="-2.0773571357"><ele>234.70</ele><time>2018-06-27T10:56:33Z</time></trkpt><trkpt lat="51.7805768643" lon="-2.0774130430"><ele>233.26</ele><time>2018-06-27T10:56:49Z</time></trkpt><trkpt lat="51.7804316897" lon="-2.0778121054"><ele>232.30</ele><time>2018-06-27T10:57:09Z</time></trkpt><trkpt lat="51.7803756148" lon="-2.0780580305"><ele>231.33</ele><time>2018-06-27T10:57:32Z</time></trkpt><trkpt lat="51.7803570069" lon="-2.0780833438"><ele>230.85</ele><time>2018-06-27T10:57:56Z</time></trkpt><trkpt lat="51.7803451885" lon="-2.0781874470"><ele>228.93</ele><time>2018-06-27T10:58:20Z</time></trkpt><trkpt lat="51.7803275026" lon="-2.0782421809"><ele>227.01</ele><time>2018-06-27T10:58:39Z</time></trkpt><trkpt lat="51.7802319489" lon="-2.0785559993"><ele>225.09</ele><time>2018-06-27T10:58:57Z</time></trkpt><trkpt lat="51.7801367305" lon="-2.0790273137"><ele>222.68</ele><time>2018-06-27T10:59:18Z</time></trkpt><trkpt lat="51.7801306117" lon="-2.0790955424"><ele>219.80</ele><time>2018-06-27T10:59:39Z</time></trkpt><trkpt lat="51.7801488005" lon="-2.0792933553"><ele>218.36</ele><time>2018-06-27T11:00:01Z</time></trkpt><trkpt lat="51.7801565956" lon="-2.0794664416"><ele>216.91</ele><time>2018-06-27T11:00:23Z</time></trkpt><trkpt lat="51.7801322881" lon="-2.0796486642"><ele>214.51</ele><time>2018-06-27T11:00:46Z</time></trkpt><trkpt lat="51.7801317014" lon="-2.0797906537"><ele>212.11</ele><time>2018-06-27T11:01:10Z</time></trkpt><trkpt lat="51.7801459506" lon="-2.0798485726"><ele>210.67</ele><time>2018-06-27T11:01:27Z</time></trkpt><trkpt lat="51.7802066356" lon="-2.0800337289"><ele>207.78</ele><time>2018-06-27T11:01:46Z</time></trkpt><trkpt lat="51.7803157680" lon="-2.0801108424"><ele>206.82</ele><time>2018-06-27T11:02:10Z</time></trkpt><trkpt lat="51.7803027760" lon="-2.0803556778"><ele>206.82</ele><time>2018-06-27T11:02:35Z</time></trkpt><trkpt lat="51.7802565917" lon="-2.0804562606"><ele>205.38</ele><time>2018-06-27T11:02:56Z</time></trkpt><trkpt lat="51.7802181188" lon="-2.0805257466"><ele>202.98</ele><time>2018-06-27T11:03:12Z</time></trkpt><trkpt lat="51.7801580206" lon="-2.0805572625"><ele>201.05</ele><time>2018-06-27T11:03:32Z</time></trkpt><trkpt lat="51.7801441904" lon="-2.0805944782"><ele>200.57</ele><time>2018-06-27T11:03:53Z</time></trkpt><trkpt lat="51.7801120877" lon="-2.0806510560"><ele>199.13</ele><time>2018-06-27T11:04:15Z</time></trkpt><trkpt lat="51.7800731119" lon="-2.0806641318"><ele>197.21</ele><time>2018-06-27T11:04:34Z</time></trkpt><trkpt lat="51.7800286040" lon="-2.0806710050"><ele>194.32</ele><time>2018-06-27T11:04:51Z</time></trkpt><trkpt lat="51.7799317930" lon="-2.0809016749"><ele>194.80</ele><time>2018-06-27T11:05:20Z</time></trkpt><trkpt lat="51.7798820883" lon="-2.0809388068"><ele>192.40</ele><time>2018-06-27T11:05:47Z</time></trkpt><trkpt lat="51.7797006201" lon="-2.0811492763"><ele>189.04</ele><time>2018-06-27T11:06:07Z</time></trkpt><trkpt lat="51.7796686850" lon="-2.0811732486"><ele>187.59</ele><time>2018-06-27T11:06:24Z</time></trkpt><trkpt lat="51.7796513345" lon="-2.0812116377"><ele>187.11</ele><time>2018-06-27T11:06:50Z</time></trkpt><trkpt lat="51.7796146218" lon="-2.0812434889"><ele>184.23</ele><time>2018-06-27T11:07:02Z</time></trkpt><trkpt lat="51.7795350775" lon="-2.0813074429"><ele>182.31</ele><time>2018-06-27T11:07:21Z</time></trkpt><trkpt lat="51.7794774938" lon="-2.0813185070"><ele>181.83</ele><time>2018-06-27T11:07:45Z</time></trkpt><trkpt lat="51.7793127056" lon="-2.0814470854"><ele>179.42</ele><time>2018-06-27T11:08:03Z</time></trkpt><trkpt lat="51.7792781722" lon="-2.0814730693"><ele>179.42</ele><time>2018-06-27T11:08:24Z</time></trkpt><trkpt lat="51.7792592291" lon="-2.0814641006"><ele>177.98</ele><time>2018-06-27T11:08:43Z</time></trkpt><trkpt lat="51.7792411242" lon="-2.0815045014"><ele>176.54</ele><time>2018-06-27T11:09:00Z</time></trkpt><trkpt lat="51.7791604903" lon="-2.0816792641"><ele>174.14</ele><time>2018-06-27T11:09:17Z</time></trkpt><trkpt lat="51.7790696304" lon="-2.0818823576"><ele>172.21</ele><time>2018-06-27T11:09:34Z</time></trkpt><trkpt lat="51.7790469993" lon="-2.0819007978"><ele>171.25</ele><time>2018-06-27T11:09:59Z</time></trkpt><trkpt lat="51.7790255416" lon="-2.0819044858"><ele>169.81</ele><time>2018-06-27T11:10:20Z</time></trkpt><trkpt lat="51.7789875716" lon="-2.0819653384"><ele>166.45</ele><time>2018-06-27T11:10:41Z</time></trkpt><trkpt lat="51.7788729072" lon="-2.0821424481"><ele>164.04</ele><time>2018-06-27T11:11:02Z</time></trkpt><trkpt lat="51.7788253818" lon="-2.0821875427"><ele>163.08</ele><time>2018-06-27T11:11:21Z</time></trkpt><trkpt lat="51.7787887529" lon="-2.0822218247"><ele>162.60</ele><time>2018-06-27T11:11:45Z</time></trkpt><trkpt lat="51.7787226196" lon="-2.0824806578"><ele>162.60</ele><time>2018-06-27T11:12:03Z</time></trkpt><trkpt lat="51.7787077837" lon="-2.0824564341"><ele>162.12</ele><time>2018-06-27T11:12:24Z</time></trkpt><trkpt lat="51.7786796205" lon="-2.0824968349"><ele>162.12</ele><time>2018-06-27T11:12:41Z</time></trkpt><trkpt lat="51.7787356116" lon="-2.0824220683"><ele>162.60</ele><time>2018-06-27T11:13:07Z</time></trkpt><trkpt lat="51.7787735816" lon="-2.0824307017"><ele>162.12</ele><time>2018-06-27T11:13:28Z</time></trkpt><trkpt lat="51.7787419818" lon="-2.0824653190"><ele>162.12</ele><time>2018-06-27T11:13:47Z</time></trkpt><trkpt lat="51.7787458375" lon="-2.0824657381"><ele>161.64</ele><time>2018-06-27T11:14:11Z</time></trkpt><trkpt lat="51.7787516210" lon="-2.0824652351"><ele>162.12</ele><time>2018-06-27T11:14:47Z</time></trkpt><trkpt lat="51.7787523754" lon="-2.0824648160"><ele>162.12</ele><time>2018-06-27T11:15:19Z</time></trkpt><trkpt lat="51.7787570693" lon="-2.0824703481"><ele>161.64</ele><time>2018-06-27T11:15:40Z</time></trkpt><trkpt lat="51.7787506152" lon="-2.0824759640"><ele>161.64</ele><time>2018-06-27T11:16:04Z</time></trkpt><trkpt lat="51.7787377071" lon="-2.0824865252"><ele>162.12</ele><time>2018-06-27T11:16:25Z</time></trkpt><trkpt lat="51.7787484359" lon="-2.0824144408"><ele>161.64</ele><time>2018-06-27T11:16:42Z</time></trkpt><trkpt lat="51.7788085341" lon="-2.0824017003"><ele>161.64</ele><time>2018-06-27T11:17:02Z</time></trkpt><trkpt lat="51.7788097914" lon="-2.0824035443"><ele>161.64</ele><time>2018-06-27T11:17:03Z</time></trkpt><trkpt lat="51.7789249588" lon="-2.0824439451"><ele>162.60</ele><time>2018-06-27T11:17:16Z</time></trkpt><trkpt lat="51.7790775094" lon="-2.0825238246"><ele>162.60</ele><time>2018-06-27T11:17:33Z</time></trkpt><trkpt lat="51.7791180778" lon="-2.0825232379"><ele>162.60</ele><time>2018-06-27T11:17:47Z</time></trkpt><trkpt lat="51.7791629210" lon="-2.0825336315"><ele>163.08</ele><time>2018-06-27T11:18:21Z</time></trkpt><trkpt lat="51.7791706324" lon="-2.0825029537"><ele>162.60</ele><time>2018-06-27T11:18:46Z</time></trkpt><trkpt lat="51.7792028189" lon="-2.0825442765"><ele>163.56</ele><time>2018-06-27T11:19:08Z</time></trkpt><trkpt lat="51.7792290542" lon="-2.0825714339"><ele>163.08</ele><time>2018-06-27T11:19:30Z</time></trkpt><trkpt lat="51.7792072613" lon="-2.0826750342"><ele>163.56</ele><time>2018-06-27T11:19:55Z</time></trkpt><trkpt lat="51.7792023998" lon="-2.0826737769"><ele>163.08</ele><time>2018-06-27T11:19:58Z</time></trkpt><trkpt lat="51.7791645136" lon="-2.0826746989"><ele>163.08</ele><time>2018-06-27T11:20:01Z</time></trkpt><trkpt lat="51.7790231947" lon="-2.0826807339"><ele>162.60</ele><time>2018-06-27T11:20:14Z</time></trkpt><trkpt lat="51.7788891681" lon="-2.0826141816"><ele>162.60</ele><time>2018-06-27T11:20:28Z</time></trkpt><trkpt lat="51.7787248828" lon="-2.0825699251"><ele>163.08</ele><time>2018-06-27T11:20:44Z</time></trkpt><trkpt lat="51.7786958814" lon="-2.0825366490"><ele>162.12</ele><time>2018-06-27T11:20:57Z</time></trkpt><trkpt lat="51.7786791176" lon="-2.0826135110"><ele>161.64</ele><time>2018-06-27T11:21:13Z</time></trkpt><trkpt lat="51.7786837276" lon="-2.0826290175"><ele>162.12</ele><time>2018-06-27T11:21:35Z</time></trkpt><trkpt lat="51.7786612641" lon="-2.0826466195"><ele>162.12</ele><time>2018-06-27T11:21:50Z</time></trkpt><trkpt lat="51.7786449194" lon="-2.0826411713"><ele>162.12</ele><time>2018-06-27T11:22:08Z</time></trkpt><trkpt lat="51.7785911076" lon="-2.0825681649"><ele>161.16</ele><time>2018-06-27T11:22:25Z</time></trkpt><trkpt lat="51.7785010021" lon="-2.0825598668"><ele>160.68</ele><time>2018-06-27T11:22:41Z</time></trkpt><trkpt lat="51.7783708312" lon="-2.0825913828"><ele>160.20</ele><time>2018-06-27T11:22:59Z</time></trkpt><trkpt lat="51.7783273291" lon="-2.0825964119"><ele>160.20</ele><time>2018-06-27T11:23:24Z</time></trkpt><trkpt lat="51.7783322744" lon="-2.0825833362"><ele>160.20</ele><time>2018-06-27T11:23:47Z</time></trkpt><trkpt lat="51.7782421689" lon="-2.0827529859"><ele>160.68</ele><time>2018-06-27T11:24:04Z</time></trkpt><trkpt lat="51.7781310249" lon="-2.0828818996"><ele>161.64</ele><time>2018-06-27T11:24:21Z</time></trkpt><trkpt lat="51.7780171148" lon="-2.0828688238"><ele>163.08</ele><time>2018-06-27T11:24:38Z</time></trkpt><trkpt lat="51.7779695895" lon="-2.0827945601"><ele>163.56</ele><time>2018-06-27T11:24:57Z</time></trkpt><trkpt lat="51.7779635545" lon="-2.0827504713"><ele>164.52</ele><time>2018-06-27T11:25:18Z</time></trkpt><trkpt lat="51.7779166158" lon="-2.0824144408"><ele>166.93</ele><time>2018-06-27T11:25:37Z</time></trkpt><trkpt lat="51.7778802384" lon="-2.0822174661"><ele>169.81</ele><time>2018-06-27T11:25:56Z</time></trkpt><trkpt lat="51.7778293602" lon="-2.0821289532"><ele>172.21</ele><time>2018-06-27T11:26:17Z</time></trkpt><trkpt lat="51.7778334673" lon="-2.0821204875"><ele>172.21</ele><time>2018-06-27T11:26:41Z</time></trkpt><trkpt lat="51.7778416816" lon="-2.0821348205"><ele>172.21</ele><time>2018-06-27T11:27:05Z</time></trkpt><trkpt lat="51.7777985148" lon="-2.0820640773"><ele>175.58</ele><time>2018-06-27T11:27:23Z</time></trkpt><trkpt lat="51.7776877061" lon="-2.0819442999"><ele>176.54</ele><time>2018-06-27T11:27:40Z</time></trkpt><trkpt lat="51.7776491493" lon="-2.0819376782"><ele>176.54</ele><time>2018-06-27T11:27:58Z</time></trkpt><trkpt lat="51.7776215728" lon="-2.0819635782"><ele>177.02</ele><time>2018-06-27T11:28:17Z</time></trkpt><trkpt lat="51.7775569484" lon="-2.0820256881"><ele>177.02</ele><time>2018-06-27T11:28:31Z</time></trkpt><trkpt lat="51.7774433736" lon="-2.0821856149"><ele>178.46</ele><time>2018-06-27T11:28:49Z</time></trkpt><trkpt lat="51.7773121968" lon="-2.0823471341"><ele>179.90</ele><time>2018-06-27T11:29:08Z</time></trkpt><trkpt lat="51.7772555351" lon="-2.0824182127"><ele>182.79</ele><time>2018-06-27T11:29:27Z</time></trkpt><trkpt lat="51.7772119492" lon="-2.0824611280"><ele>183.75</ele><time>2018-06-27T11:29:51Z</time></trkpt><trkpt lat="51.7772231810" lon="-2.0824571047"><ele>183.75</ele><time>2018-06-27T11:30:12Z</time></trkpt><trkpt lat="51.7771276273" lon="-2.0825239923"><ele>187.59</ele><time>2018-06-27T11:30:28Z</time></trkpt><trkpt lat="51.7770421319" lon="-2.0826000161"><ele>187.11</ele><time>2018-06-27T11:30:43Z</time></trkpt><trkpt lat="51.7770274635" lon="-2.0826133434"><ele>189.04</ele><time>2018-06-27T11:31:05Z</time></trkpt><trkpt lat="51.7769704666" lon="-2.0826851763"><ele>190.96</ele><time>2018-06-27T11:31:30Z</time></trkpt><trkpt lat="51.7768984661" lon="-2.0827382337"><ele>193.36</ele><time>2018-06-27T11:31:52Z</time></trkpt><trkpt lat="51.7768085282" lon="-2.0827902015"><ele>194.32</ele><time>2018-06-27T11:32:15Z</time></trkpt><trkpt lat="51.7766729090" lon="-2.0829738490"><ele>196.25</ele><time>2018-06-27T11:32:35Z</time></trkpt><trkpt lat="51.7766352743" lon="-2.0830071252"><ele>199.61</ele><time>2018-06-27T11:32:53Z</time></trkpt><trkpt lat="51.7765438277" lon="-2.0831041038"><ele>201.05</ele><time>2018-06-27T11:33:11Z</time></trkpt><trkpt lat="51.7765214480" lon="-2.0831437502"><ele>201.53</ele><time>2018-06-27T11:33:29Z</time></trkpt><trkpt lat="51.7765159160" lon="-2.0831386372"><ele>201.05</ele><time>2018-06-27T11:33:50Z</time></trkpt><trkpt lat="51.7764989007" lon="-2.0831577480"><ele>202.01</ele><time>2018-06-27T11:34:07Z</time></trkpt><trkpt lat="51.7765383795" lon="-2.0831938740"><ele>202.01</ele><time>2018-06-27T11:34:24Z</time></trkpt><trkpt lat="51.7765408941" lon="-2.0833274815"><ele>202.98</ele><time>2018-06-27T11:34:40Z</time></trkpt><trkpt lat="51.7764338572" lon="-2.0833477657"><ele>204.42</ele><time>2018-06-27T11:34:51Z</time></trkpt><trkpt lat="51.7763069551" lon="-2.0835713111"><ele>206.82</ele><time>2018-06-27T11:35:07Z</time></trkpt><trkpt lat="51.7762202863" lon="-2.0837052539"><ele>208.26</ele><time>2018-06-27T11:35:21Z</time></trkpt><trkpt lat="51.7762103956" lon="-2.0837054215"><ele>209.22</ele><time>2018-06-27T11:35:36Z</time></trkpt><trkpt lat="51.7761028558" lon="-2.0837056730"><ele>209.70</ele><time>2018-06-27T11:35:54Z</time></trkpt><trkpt lat="51.7760865111" lon="-2.0837282203"><ele>211.15</ele><time>2018-06-27T11:36:13Z</time></trkpt><trkpt lat="51.7761518899" lon="-2.0836763363"><ele>209.70</ele><time>2018-06-27T11:36:31Z</time></trkpt><trkpt lat="51.7760847509" lon="-2.0837474987"><ele>210.19</ele><time>2018-06-27T11:36:48Z</time></trkpt><trkpt lat="51.7760451045" lon="-2.0838072617"><ele>211.15</ele><time>2018-06-27T11:37:05Z</time></trkpt><trkpt lat="51.7759988364" lon="-2.0839123707"><ele>213.07</ele><time>2018-06-27T11:37:22Z</time></trkpt><trkpt lat="51.7759223096" lon="-2.0840551984"><ele>215.47</ele><time>2018-06-27T11:37:36Z</time></trkpt><trkpt lat="51.7758378200" lon="-2.0843133610"><ele>217.40</ele><time>2018-06-27T11:37:52Z</time></trkpt><trkpt lat="51.7758436035" lon="-2.0843197312"><ele>218.36</ele><time>2018-06-27T11:38:10Z</time></trkpt><trkpt lat="51.7758130096" lon="-2.0843758062"><ele>219.32</ele><time>2018-06-27T11:38:23Z</time></trkpt><trkpt lat="51.7757768836" lon="-2.0844539255"><ele>220.76</ele><time>2018-06-27T11:38:29Z</time></trkpt><trkpt lat="51.7756291945" lon="-2.0847467892"><ele>222.20</ele><time>2018-06-27T11:38:46Z</time></trkpt><trkpt lat="51.7755866144" lon="-2.0848989207"><ele>223.64</ele><time>2018-06-27T11:39:05Z</time></trkpt><trkpt lat="51.7756116763" lon="-2.0848824922"><ele>223.16</ele><time>2018-06-27T11:39:25Z</time></trkpt><trkpt lat="51.7755747959" lon="-2.0850957278"><ele>224.12</ele><time>2018-06-27T11:39:44Z</time></trkpt><trkpt lat="51.7755822558" lon="-2.0851507969"><ele>224.61</ele><time>2018-06-27T11:39:49Z</time></trkpt><trkpt lat="51.7755632289" lon="-2.0854328480"><ele>225.57</ele><time>2018-06-27T11:40:04Z</time></trkpt><trkpt lat="51.7755763046" lon="-2.0856085327"><ele>226.05</ele><time>2018-06-27T11:40:24Z</time></trkpt><trkpt lat="51.7755777296" lon="-2.0858074352"><ele>227.49</ele><time>2018-06-27T11:40:44Z</time></trkpt><trkpt lat="51.7755788192" lon="-2.0861088485"><ele>228.45</ele><time>2018-06-27T11:41:00Z</time></trkpt><trkpt lat="51.7755802441" lon="-2.0863944199"><ele>229.41</ele><time>2018-06-27T11:41:20Z</time></trkpt><trkpt lat="51.7755545955" lon="-2.0866752975"><ele>229.89</ele><time>2018-06-27T11:41:38Z</time></trkpt><trkpt lat="51.7755750474" lon="-2.0869187918"><ele>230.37</ele><time>2018-06-27T11:41:58Z</time></trkpt><trkpt lat="51.7756139394" lon="-2.0871164370"><ele>230.85</ele><time>2018-06-27T11:42:17Z</time></trkpt><trkpt lat="51.7755659111" lon="-2.0875559840"><ele>232.30</ele><time>2018-06-27T11:42:38Z</time></trkpt><trkpt lat="51.7755832616" lon="-2.0876378752"><ele>232.30</ele><time>2018-06-27T11:42:54Z</time></trkpt><trkpt lat="51.7755727842" lon="-2.0877879113"><ele>233.26</ele><time>2018-06-27T11:43:15Z</time></trkpt><trkpt lat="51.7755969241" lon="-2.0879690442"><ele>234.22</ele><time>2018-06-27T11:43:32Z</time></trkpt><trkpt lat="51.7755334731" lon="-2.0883058291"><ele>234.22</ele><time>2018-06-27T11:43:47Z</time></trkpt><trkpt lat="51.7755285278" lon="-2.0885471441"><ele>235.18</ele><time>2018-06-27T11:44:03Z</time></trkpt><trkpt lat="51.7755234148" lon="-2.0888267644"><ele>235.66</ele><time>2018-06-27T11:44:20Z</time></trkpt><trkpt lat="51.7755151168" lon="-2.0890816581"><ele>236.14</ele><time>2018-06-27T11:44:39Z</time></trkpt><trkpt lat="51.7755343113" lon="-2.0893345401"><ele>237.10</ele><time>2018-06-27T11:44:59Z</time></trkpt><trkpt lat="51.7755547632" lon="-2.0894151740"><ele>236.62</ele><time>2018-06-27T11:45:16Z</time></trkpt><trkpt lat="51.7755923979" lon="-2.0894785412"><ele>236.62</ele><time>2018-06-27T11:45:32Z</time></trkpt><trkpt lat="51.7757216468" lon="-2.0896498673"><ele>235.18</ele><time>2018-06-27T11:45:49Z</time></trkpt><trkpt lat="51.7758521531" lon="-2.0897981431"><ele>234.70</ele><time>2018-06-27T11:46:11Z</time></trkpt><trkpt lat="51.7760254908" lon="-2.0899537113"><ele>235.66</ele><time>2018-06-27T11:46:31Z</time></trkpt><trkpt lat="51.7761829868" lon="-2.0901065134"><ele>237.58</ele><time>2018-06-27T11:46:49Z</time></trkpt><trkpt lat="51.7763108946" lon="-2.0902030729"><ele>238.54</ele><time>2018-06-27T11:47:08Z</time></trkpt><trkpt lat="51.7764691450" lon="-2.0903458167"><ele>239.51</ele><time>2018-06-27T11:47:27Z</time></trkpt><trkpt lat="51.7766564805" lon="-2.0904800948"><ele>239.99</ele><time>2018-06-27T11:47:47Z</time></trkpt><trkpt lat="51.7768602446" lon="-2.0906164683"><ele>240.47</ele><time>2018-06-27T11:48:08Z</time></trkpt><trkpt lat="51.7770132981" lon="-2.0907591283"><ele>240.95</ele><time>2018-06-27T11:48:28Z</time></trkpt><trkpt lat="51.7771366797" lon="-2.0908633154"><ele>241.43</ele><time>2018-06-27T11:48:47Z</time></trkpt><trkpt lat="51.7772919126" lon="-2.0910629723"><ele>240.47</ele><time>2018-06-27T11:49:05Z</time></trkpt><trkpt lat="51.7773898132" lon="-2.0911341347"><ele>240.95</ele><time>2018-06-27T11:49:24Z</time></trkpt><trkpt lat="51.7773957644" lon="-2.0911380742"><ele>240.95</ele><time>2018-06-27T11:49:48Z</time></trkpt><trkpt lat="51.7773902323" lon="-2.0912208036"><ele>239.99</ele><time>2018-06-27T11:50:09Z</time></trkpt><trkpt lat="51.7777159531" lon="-2.0914689079"><ele>240.47</ele><time>2018-06-27T11:50:31Z</time></trkpt><trkpt lat="51.7778888717" lon="-2.0915851649"><ele>239.99</ele><time>2018-06-27T11:50:48Z</time></trkpt><trkpt lat="51.7780558392" lon="-2.0917169284"><ele>240.47</ele><time>2018-06-27T11:51:08Z</time></trkpt><trkpt lat="51.7781544942" lon="-2.0918051060"><ele>239.99</ele><time>2018-06-27T11:51:24Z</time></trkpt><trkpt lat="51.7781762034" lon="-2.0918436628"><ele>237.58</ele><time>2018-06-27T11:51:43Z</time></trkpt><trkpt lat="51.7782728467" lon="-2.0920073614"><ele>238.06</ele><time>2018-06-27T11:51:58Z</time></trkpt><trkpt lat="51.7782211304" lon="-2.0922470000"><ele>239.02</ele><time>2018-06-27T11:52:18Z</time></trkpt><trkpt lat="51.7781477049" lon="-2.0925539453"><ele>239.51</ele><time>2018-06-27T11:52:35Z</time></trkpt><trkpt lat="51.7780555878" lon="-2.0927591342"><ele>240.95</ele><time>2018-06-27T11:52:50Z</time></trkpt><trkpt lat="51.7780731898" lon="-2.0928344876"><ele>241.43</ele><time>2018-06-27T11:53:08Z</time></trkpt><trkpt lat="51.7781095672" lon="-2.0929239225"><ele>240.95</ele><time>2018-06-27T11:53:26Z</time></trkpt><trkpt lat="51.7781125009" lon="-2.0929491520"><ele>240.95</ele><time>2018-06-27T11:53:45Z</time></trkpt></trkseg></trk></gpx>